F/V Barracuda II — FMIF — position and weather

sailwx.info

Track history (hours):
 
Tides and Currents Weather Stations Pressure Air Temp Water Temp Dewpoint Dewpoint Depression Visibility Wind Speed Wind Dir Waves Ship Positions

F/V Barracuda II

Last reported at 2015-Jul-31 14:33 UTC. Time now 2015-Aug-01 18:11 UTC.
Position N 43°31' E 004°06'.

Length 23 m.

Type: Fishing. MMSI: 228236800.

Date/timePositionNaut miles runAvg speedWind from/ knotsBaromVisibWave heightAir tempDewpointWater temp
2015-Jul-31 14:33N 43°31' E 004°06'8 7.9
2015-Jul-31 13:33N 43°23' E 004°08'4 3.9
2015-Jul-31 12:29N 43°21' E 004°12'4 3.9
2015-Jul-31 11:32N 43°19' E 004°17'4 4.0
2015-Jul-31 10:33N 43°17' E 004°22'3 2.9
2015-Jul-31 09:33N 43°16' E 004°25'4 3.9
2015-Jul-31 08:33N 43°15' E 004°31'4 3.8
2015-Jul-31 07:33N 43°15' E 004°36'2 1.9
2015-Jul-31 06:33N 43°16' E 004°38'26 1.5
2015-Jul-30 13:33N 43°28' E 004°06'9 8.6
2015-Jul-30 12:33N 43°20' E 004°11'3 3.4
2015-Jul-30 11:33N 43°18' E 004°15'4 4.0
2015-Jul-30 10:33N 43°17' E 004°20'3 2.5
2015-Jul-30 09:33N 43°16' E 004°23'4 4.0
2015-Jul-30 08:33N 43°16' E 004°29'4 4.0
2015-Jul-30 07:33N 43°15' E 004°34'4 3.8
2015-Jul-30 06:33N 43°16' E 004°39'28 1.8
2015-Jul-29 14:33N 43°31' E 004°06'10 9.6
2015-Jul-29 13:33N 43°22' E 004°07'3 3.1
2015-Jul-29 12:33N 43°20' E 004°10'4 4.1
2015-Jul-29 11:33N 43°18' E 004°16'4 4.0
2015-Jul-29 10:33N 43°17' E 004°21'2 2.2
2015-Jul-29 09:33N 43°16' E 004°24'4 4.0
2015-Jul-29 08:33N 43°17' E 004°29'4 4.0
2015-Jul-29 07:33N 43°17' E 004°35'4 3.9
2015-Jul-29 06:33N 43°17' E 004°40'28 1.8
2015-Jul-28 14:32N 43°31' E 004°06'9 9.1
2015-Jul-28 13:33N 43°22' E 004°09'4 3.6
2015-Jul-28 12:33N 43°21' E 004°13'4 4.0
2015-Jul-28 11:33N 43°19' E 004°18'4 4.0
2015-Jul-28 10:33N 43°17' E 004°23'4 3.5
2015-Jul-28 09:33N 43°16' E 004°28'4 3.9
2015-Jul-28 08:34N 43°16' E 004°33'4 4.0
2015-Jul-28 07:33N 43°16' E 004°38'2 1.7
2015-Jul-28 06:33N 43°17' E 004°41'28 1.8
2015-Jul-27 15:05N 43°32' E 004°07'3 6.4
2015-Jul-27 14:33N 43°29' E 004°06'9 9.2
2015-Jul-27 13:33N 43°21' E 004°14'3 3.1
2015-Jul-27 12:33N 43°19' E 004°16'4 4.0
2015-Jul-27 11:33N 43°17' E 004°21'4 4.0
2015-Jul-27 10:33N 43°17' E 004°27'4 4.0
2015-Jul-27 09:33N 43°16' E 004°32'1 1.4
2015-Jul-27 08:34N 43°16' E 004°34'8 2.8
2015-Jul-27 05:33N 43°23' E 004°27'17 0.4
2015-Jul-25 07:04N 43°32' E 004°08'1 0.1
2015-Jul-24 07:15N 43°32' E 004°07'0 0.0
2015-Jul-23 15:33N 43°32' E 004°07'2 0.3
2015-Jul-23 08:22N 43°30' E 004°05'8 1.7
2015-Jul-23 03:33N 43°26' E 004°15'8 7.7
2015-Jul-23 02:27N 43°31' E 004°06'1 0.1
2015-Jul-22 15:33N 43°31' E 004°06'  
Track history (hours):
 
Tides and Currents Weather Stations Pressure Air Temp Water Temp Dewpoint Dewpoint Depression Visibility Wind Speed Wind Dir Waves Ship Positions

F/V Barracuda II

Last reported at 2015-Jul-31 14:33 UTC. Time now 2015-Aug-01 18:11 UTC.
Position N 43°31' E 004°06'.

Length 23 m.

Type: Fishing. MMSI: 228236800.

Date/timePositionNaut miles runAvg speedWind from/ knotsBaromVisibWave heightAir tempDewpointWater temp
2015-Jul-31 14:33N 43°31' E 004°06'8 7.9
2015-Jul-31 13:33N 43°23' E 004°08'4 3.9
2015-Jul-31 12:29N 43°21' E 004°12'4 3.9
2015-Jul-31 11:32N 43°19' E 004°17'4 4.0
2015-Jul-31 10:33N 43°17' E 004°22'3 2.9
2015-Jul-31 09:33N 43°16' E 004°25'4 3.9
2015-Jul-31 08:33N 43°15' E 004°31'4 3.8
2015-Jul-31 07:33N 43°15' E 004°36'2 1.9
2015-Jul-31 06:33N 43°16' E 004°38'26 1.5
2015-Jul-30 13:33N 43°28' E 004°06'9 8.6
2015-Jul-30 12:33N 43°20' E 004°11'3 3.4
2015-Jul-30 11:33N 43°18' E 004°15'4 4.0
2015-Jul-30 10:33N 43°17' E 004°20'3 2.5
2015-Jul-30 09:33N 43°16' E 004°23'4 4.0
2015-Jul-30 08:33N 43°16' E 004°29'4 4.0
2015-Jul-30 07:33N 43°15' E 004°34'4 3.8
2015-Jul-30 06:33N 43°16' E 004°39'28 1.8
2015-Jul-29 14:33N 43°31' E 004°06'10 9.6
2015-Jul-29 13:33N 43°22' E 004°07'3 3.1
2015-Jul-29 12:33N 43°20' E 004°10'4 4.1
2015-Jul-29 11:33N 43°18' E 004°16'4 4.0
2015-Jul-29 10:33N 43°17' E 004°21'2 2.2
2015-Jul-29 09:33N 43°16' E 004°24'4 4.0
2015-Jul-29 08:33N 43°17' E 004°29'4 4.0
2015-Jul-29 07:33N 43°17' E 004°35'4 3.9
2015-Jul-29 06:33N 43°17' E 004°40'28 1.8
2015-Jul-28 14:32N 43°31' E 004°06'9 9.1
2015-Jul-28 13:33N 43°22' E 004°09'4 3.6
2015-Jul-28 12:33N 43°21' E 004°13'4 4.0
2015-Jul-28 11:33N 43°19' E 004°18'4 4.0
2015-Jul-28 10:33N 43°17' E 004°23'4 3.5
2015-Jul-28 09:33N 43°16' E 004°28'4 3.9
2015-Jul-28 08:34N 43°16' E 004°33'4 4.0
2015-Jul-28 07:33N 43°16' E 004°38'2 1.7
2015-Jul-28 06:33N 43°17' E 004°41'28 1.8
2015-Jul-27 15:05N 43°32' E 004°07'3 6.4
2015-Jul-27 14:33N 43°29' E 004°06'9 9.2
2015-Jul-27 13:33N 43°21' E 004°14'3 3.1
2015-Jul-27 12:33N 43°19' E 004°16'4 4.0
2015-Jul-27 11:33N 43°17' E 004°21'4 4.0
2015-Jul-27 10:33N 43°17' E 004°27'4 4.0
2015-Jul-27 09:33N 43°16' E 004°32'1 1.4
2015-Jul-27 08:34N 43°16' E 004°34'8 2.8
2015-Jul-27 05:33N 43°23' E 004°27'17 0.4
2015-Jul-25 07:04N 43°32' E 004°08'1 0.1
2015-Jul-24 07:15N 43°32' E 004°07'0 0.0
2015-Jul-23 15:33N 43°32' E 004°07'2 0.3
2015-Jul-23 08:22N 43°30' E 004°05'8 1.7
2015-Jul-23 03:33N 43°26' E 004°15'8 7.7
2015-Jul-23 02:27N 43°31' E 004°06'1 0.1
2015-Jul-22 15:33N 43°31' E 004°06'  

Dump ship's entire track history